Peralta, New Mexico
Current Conditions -  °F | °C
As of 8:52 AM on Saturday 25 Oct 2014 (Local Time) from KABQ Reporting Station
Clear Clear  
Wind Chill: 54°   Ceiling: Unl
Heat Index: 54°   Visibility: 10mi
Dew Point: 29°   Wind: 6mph
Humidity: 38%   Direction: 20°NNE
Pressure: 30.33"   Gusts: NA
Location:  34.84°N, 106.69°W
Report Text: KABQ 251452Z 02005KT 10SM CLR 12/M02 A3033 RMK AO2 SLP219 T01221017 53012
Loading
Personal Weather Stations






























Interactive Weather Map
Tropical Storm Tracking
New forecast layout! Learn more

10-Day Weather Forecast

Advertisements
Track Severe Weather on mobile